Time;durP1;ratioP1;P1;durP2;ratioP2;P2;SDS_P1;SDS_P2;PMS_P1;PMS_P2;Temp;Humidity;BMP_temperature;BMP_pressure;BME280_temperature;BME280_humidity;BME280_pressure;Samples;Min_cycle;Max_cycle;Signal;HPM_P1;HPM_P2
2023/12/08 00:00:14;;;;;;;14.17;8.47;;;;;;;;;;5027151;28;20239;-63
2023/12/08 00:02:41;;;;;;;14.43;8.10;;;;;;;;;;5033868;28;20234;-64
2023/12/08 00:05:09;;;;;;;13.70;8.13;;;;;;;;;;5046888;28;20231;-64
2023/12/08 00:07:36;;;;;;;13.87;7.97;;;;;;;;;;5047134;28;20319;-64
2023/12/08 00:10:03;;;;;;;18.10;8.67;;;;;;;;;;5045060;28;20211;-63
2023/12/08 00:12:30;;;;;;;15.40;8.73;;;;;;;;;;5028768;28;20259;-63
2023/12/08 00:14:59;;;;;;;17.43;9.83;;;;;;;;;;5043943;28;20429;-64
2023/12/08 00:17:27;;;;;;;16.27;8.80;;;;;;;;;;5046730;28;20277;-63
2023/12/08 00:19:54;;;;;;;16.30;9.03;;;;;;;;;;5043584;28;20213;-63
2023/12/08 00:22:21;;;;;;;14.30;8.50;;;;;;;;;;5043537;28;20207;-64
2023/12/08 00:24:49;;;;;;;14.77;8.37;;;;;;;;;;5043348;28;20256;-64
2023/12/08 00:27:16;;;;;;;14.53;8.50;;;;;;;;;;5039241;28;20207;-64
2023/12/08 00:29:44;;;;;;;15.73;9.60;;;;;;;;;;5038288;28;20235;-64
2023/12/08 00:32:12;;;;;;;20.13;8.83;;;;;;;;;;5034991;28;20230;-64
2023/12/08 00:34:40;;;;;;;12.87;7.43;;;;;;;;;;5039532;28;20198;-64
2023/12/08 00:37:08;;;;;;;13.90;8.87;;;;;;;;;;5033735;28;20203;-64
2023/12/08 00:39:35;;;;;;;15.57;8.47;;;;;;;;;;5040956;28;20207;-64
2023/12/08 00:42:02;;;;;;;16.33;8.07;;;;;;;;;;5039635;28;20206;-64
2023/12/08 00:44:29;;;;;;;13.13;8.17;;;;;;;;;;5029647;28;20739;-64
2023/12/08 00:46:56;;;;;;;13.17;7.90;;;;;;;;;;5033721;28;20214;-64
2023/12/08 00:49:24;;;;;;;13.27;7.13;;;;;;;;;;5042525;28;20222;-64
2023/12/08 00:51:51;;;;;;;13.10;7.63;;;;;;;;;;5040854;28;20210;-64
2023/12/08 00:54:18;;;;;;;14.43;8.30;;;;;;;;;;5028508;28;20200;-64
2023/12/08 00:56:45;;;;;;;15.80;8.67;;;;;;;;;;5039934;28;20403;-64
2023/12/08 00:59:12;;;;;;;15.00;7.77;;;;;;;;;;5046654;28;20211;-64
2023/12/08 01:01:39;;;;;;;14.57;8.27;;;;;;;;;;5029929;28;20408;-64
2023/12/08 01:04:07;;;;;;;12.63;8.23;;;;;;;;;;5031110;28;20204;-64
2023/12/08 01:06:35;;;;;;;16.93;7.30;;;;;;;;;;5042405;28;20286;-63
2023/12/08 01:09:02;;;;;;;15.47;9.13;;;;;;;;;;5028551;28;20208;-64
2023/12/08 01:11:29;;;;;;;14.87;8.03;;;;;;;;;;5027023;28;20215;-64
2023/12/08 01:13:56;;;;;;;13.00;7.73;;;;;;;;;;5027612;28;20208;-63
2023/12/08 01:16:23;;;;;;;15.10;8.57;;;;;;;;;;5040893;28;20244;-64
2023/12/08 01:18:50;;;;;;;14.17;8.30;;;;;;;;;;5043675;28;20198;-64
2023/12/08 01:21:17;;;;;;;15.17;8.60;;;;;;;;;;5032050;28;20205;-64
2023/12/08 01:23:45;;;;;;;15.37;8.10;;;;;;;;;;5026915;28;20215;-63
2023/12/08 01:26:12;;;;;;;11.00;7.77;;;;;;;;;;5033443;28;20226;-64
2023/12/08 01:28:39;;;;;;;11.27;6.80;;;;;;;;;;5041102;28;20208;-63
2023/12/08 01:31:07;;;;;;;15.67;8.70;;;;;;;;;;5035612;28;20208;-63
2023/12/08 01:33:34;;;;;;;13.60;7.63;;;;;;;;;;5044343;28;20857;-64
2023/12/08 01:36:01;;;;;;;13.60;7.90;;;;;;;;;;5037121;28;20210;-64
2023/12/08 01:38:30;;;;;;;13.70;8.53;;;;;;;;;;5042723;28;20203;-63
2023/12/08 01:40:58;;;;;;;16.23;8.73;;;;;;;;;;5044624;28;20218;-64
2023/12/08 01:43:25;;;;;;;12.67;7.63;;;;;;;;;;5039747;28;20206;-64
2023/12/08 01:45:52;;;;;;;13.60;8.17;;;;;;;;;;5044956;28;20692;-64
2023/12/08 01:48:20;;;;;;;14.17;7.47;;;;;;;;;;5041639;28;20216;-64
2023/12/08 01:50:47;;;;;;;20.93;10.67;;;;;;;;;;5030872;28;20733;-64
2023/12/08 01:53:14;;;;;;;26.37;13.03;;;;;;;;;;5041006;28;20215;-64
2023/12/08 01:55:41;;;;;;;21.60;11.10;;;;;;;;;;5027905;28;20206;-63
2023/12/08 01:58:10;;;;;;;19.13;10.73;;;;;;;;;;5031934;28;20203;-64
2023/12/08 02:00:37;;;;;;;18.10;8.63;;;;;;;;;;5042441;28;20207;-64
2023/12/08 02:03:04;;;;;;;14.83;8.77;;;;;;;;;;5040072;28;20218;-63
2023/12/08 02:05:32;;;;;;;16.70;9.57;;;;;;;;;;5028339;28;20247;-64
2023/12/08 02:07:59;;;;;;;16.33;9.47;;;;;;;;;;5044578;28;20207;-64
2023/12/08 02:10:26;;;;;;;16.13;9.87;;;;;;;;;;5047059;28;20803;-64
2023/12/08 02:12:53;;;;;;;16.37;9.67;;;;;;;;;;5049932;28;20214;-63
2023/12/08 02:15:22;;;;;;;20.13;10.03;;;;;;;;;;5047776;28;20203;-63
2023/12/08 02:17:49;;;;;;;16.87;10.53;;;;;;;;;;5047899;28;20238;-64
2023/12/08 02:20:17;;;;;;;17.10;10.50;;;;;;;;;;5047211;28;20205;-63
2023/12/08 02:22:44;;;;;;;15.90;8.57;;;;;;;;;;5049624;28;20623;-64
2023/12/08 02:25:12;;;;;;;17.10;9.90;;;;;;;;;;5047150;28;20227;-64
2023/12/08 02:27:39;;;;;;;14.37;8.47;;;;;;;;;;5048164;28;20216;-63
2023/12/08 02:30:07;;;;;;;14.57;8.90;;;;;;;;;;5042177;28;20206;-64
2023/12/08 02:32:36;;;;;;;13.70;8.97;;;;;;;;;;5034890;28;20208;-64
2023/12/08 02:35:05;;;;;;;15.57;8.70;;;;;;;;;;5030738;28;20197;-64
2023/12/08 02:37:34;;;;;;;14.27;8.17;;;;;;;;;;5046024;28;20955;-64
2023/12/08 02:40:02;;;;;;;14.50;8.23;;;;;;;;;;5048899;28;20629;-64
2023/12/08 02:42:30;;;;;;;13.37;8.37;;;;;;;;;;5032677;28;20204;-63
2023/12/08 02:44:57;;;;;;;15.23;8.97;;;;;;;;;;5049261;28;20238;-64
2023/12/08 02:47:24;;;;;;;15.57;8.73;;;;;;;;;;5048770;28;20207;-64
2023/12/08 02:49:51;;;;;;;15.80;8.17;;;;;;;;;;5037637;28;20208;-64
2023/12/08 02:52:18;;;;;;;13.77;7.87;;;;;;;;;;5030145;28;20215;-64
2023/12/08 02:54:45;;;;;;;13.50;7.80;;;;;;;;;;5032020;28;20216;-63
2023/12/08 02:57:12;;;;;;;11.30;7.90;;;;;;;;;;5047990;28;20204;-64
2023/12/08 02:59:41;;;;;;;12.17;8.03;;;;;;;;;;5047768;28;20218;-64
2023/12/08 03:02:08;;;;;;;11.63;7.53;;;;;;;;;;5048070;28;20624;-63
2023/12/08 03:04:35;;;;;;;10.80;7.73;;;;;;;;;;5031760;28;20208;-64
2023/12/08 03:07:02;;;;;;;14.93;8.47;;;;;;;;;;5040213;28;20192;-64
2023/12/08 03:09:29;;;;;;;14.03;8.40;;;;;;;;;;5046710;28;20226;-63
2023/12/08 03:11:56;;;;;;;14.00;8.30;;;;;;;;;;5048059;28;20208;-64
2023/12/08 03:14:23;;;;;;;13.50;8.60;;;;;;;;;;5048805;28;20214;-64
2023/12/08 03:16:51;;;;;;;13.70;8.53;;;;;;;;;;5048448;28;20244;-64
2023/12/08 03:19:18;;;;;;;11.60;7.90;;;;;;;;;;5046950;28;20212;-64
2023/12/08 03:21:45;;;;;;;13.80;8.67;;;;;;;;;;5047218;28;20217;-64
2023/12/08 03:24:12;;;;;;;12.10;7.57;;;;;;;;;;5046652;28;20765;-63
2023/12/08 03:26:39;;;;;;;14.27;8.77;;;;;;;;;;5048558;28;20641;-63
2023/12/08 03:29:06;;;;;;;12.87;7.73;;;;;;;;;;5046709;28;20204;-63
2023/12/08 03:31:33;;;;;;;12.20;8.07;;;;;;;;;;5047024;28;20258;-63
2023/12/08 03:34:02;;;;;;;12.67;7.33;;;;;;;;;;5036840;28;20207;-64
2023/12/08 03:36:29;;;;;;;14.40;9.03;;;;;;;;;;5048075;28;20199;-61
2023/12/08 03:38:56;;;;;;;13.93;9.17;;;;;;;;;;5043871;28;20254;-61
2023/12/08 03:41:23;;;;;;;12.13;7.60;;;;;;;;;;5041310;28;20209;-61
2023/12/08 03:43:50;;;;;;;13.17;8.60;;;;;;;;;;5046804;28;20470;-62
2023/12/08 03:46:17;;;;;;;15.37;8.40;;;;;;;;;;5046703;28;20235;-62
2023/12/08 03:48:44;;;;;;;13.87;8.70;;;;;;;;;;5036154;28;20215;-62
2023/12/08 03:51:12;;;;;;;14.70;8.63;;;;;;;;;;5028501;28;20212;-62
2023/12/08 03:53:39;;;;;;;14.50;8.70;;;;;;;;;;5029085;28;20194;-62
2023/12/08 03:56:07;;;;;;;13.47;8.70;;;;;;;;;;5028227;28;20199;-62
2023/12/08 03:58:34;;;;;;;14.70;8.33;;;;;;;;;;5042877;28;20578;-62
2023/12/08 04:01:01;;;;;;;12.67;8.40;;;;;;;;;;5045722;28;20211;-62
2023/12/08 04:03:28;;;;;;;15.47;7.93;;;;;;;;;;5036164;28;20231;-61
2023/12/08 04:05:55;;;;;;;13.63;8.10;;;;;;;;;;5026972;28;20956;-61
2023/12/08 04:08:24;;;;;;;13.77;7.63;;;;;;;;;;5029004;28;20211;-61
2023/12/08 04:10:51;;;;;;;13.57;8.73;;;;;;;;;;5037997;28;20207;-61
2023/12/08 04:13:18;;;;;;;11.80;7.70;;;;;;;;;;5028217;28;20882;-62
2023/12/08 04:15:45;;;;;;;12.53;8.00;;;;;;;;;;5041166;28;20259;-62
2023/12/08 04:18:12;;;;;;;12.23;7.77;;;;;;;;;;5027500;28;20242;-62
2023/12/08 04:20:39;;;;;;;12.30;8.30;;;;;;;;;;5026785;28;20667;-62
2023/12/08 04:23:06;;;;;;;13.70;8.63;;;;;;;;;;5030138;28;20212;-61
2023/12/08 04:25:34;;;;;;;13.90;8.13;;;;;;;;;;5026748;28;20235;-62
2023/12/08 04:28:01;;;;;;;13.97;8.70;;;;;;;;;;5043226;28;20290;-62
2023/12/08 04:30:28;;;;;;;12.80;8.00;;;;;;;;;;5046566;28;20212;-62
2023/12/08 04:32:56;;;;;;;15.47;8.37;;;;;;;;;;5036481;28;20218;-64
2023/12/08 04:35:24;;;;;;;12.60;7.77;;;;;;;;;;5046564;28;20693;-64
2023/12/08 04:37:51;;;;;;;13.33;8.30;;;;;;;;;;5045659;28;20222;-61
2023/12/08 04:40:18;;;;;;;14.90;8.53;;;;;;;;;;5029291;28;20315;-62
2023/12/08 04:42:46;;;;;;;13.10;8.27;;;;;;;;;;5027171;28;20216;-62
2023/12/08 04:45:14;;;;;;;12.97;8.57;;;;;;;;;;5044988;28;20633;-62
2023/12/08 04:47:41;;;;;;;14.53;8.77;;;;;;;;;;5045120;28;20259;-62
2023/12/08 04:50:08;;;;;;;14.20;8.50;;;;;;;;;;5028905;28;20208;-62
2023/12/08 04:52:35;;;;;;;13.77;7.90;;;;;;;;;;5026198;28;20212;-62
2023/12/08 04:55:04;;;;;;;12.83;8.20;;;;;;;;;;5029905;28;20219;-62
2023/12/08 04:57:31;;;;;;;15.23;8.53;;;;;;;;;;5040215;28;20235;-61
2023/12/08 05:00:00;;;;;;;15.93;8.53;;;;;;;;;;5037637;28;20269;-61
2023/12/08 05:02:27;;;;;;;18.93;8.77;;;;;;;;;;5030904;28;20204;-63
2023/12/08 05:04:54;;;;;;;14.37;8.37;;;;;;;;;;5027274;28;20616;-61
2023/12/08 05:07:21;;;;;;;13.57;9.10;;;;;;;;;;5037929;28;20242;-61
2023/12/08 05:09:48;;;;;;;15.03;8.00;;;;;;;;;;5026297;28;20204;-61
2023/12/08 05:12:15;;;;;;;15.07;9.17;;;;;;;;;;5040262;28;20203;-63
2023/12/08 05:14:42;;;;;;;14.67;8.10;;;;;;;;;;5037925;28;20259;-64
2023/12/08 05:17:11;;;;;;;15.20;8.07;;;;;;;;;;5027216;28;20286;-64
2023/12/08 05:19:38;;;;;;;17.33;9.10;;;;;;;;;;5027032;28;20212;-64
2023/12/08 05:22:05;;;;;;;12.90;8.23;;;;;;;;;;5027161;28;20204;-61
2023/12/08 05:24:32;;;;;;;15.83;9.30;;;;;;;;;;5025987;28;20408;-61
2023/12/08 05:27:00;;;;;;;15.07;9.37;;;;;;;;;;5042616;28;20227;-61
2023/12/08 05:29:27;;;;;;;16.40;9.37;;;;;;;;;;5027214;28;20207;-62
2023/12/08 05:31:54;;;;;;;16.30;9.40;;;;;;;;;;5032631;28;20200;-62
2023/12/08 05:34:22;;;;;;;15.07;8.37;;;;;;;;;;5040278;28;20254;-62
2023/12/08 05:36:49;;;;;;;20.07;9.80;;;;;;;;;;5036897;28;20200;-62
2023/12/08 05:39:16;;;;;;;19.00;8.87;;;;;;;;;;5035784;28;20214;-62
2023/12/08 05:41:43;;;;;;;14.17;8.83;;;;;;;;;;5031871;28;20232;-61
2023/12/08 05:44:10;;;;;;;14.57;9.10;;;;;;;;;;5037242;28;20261;-62
2023/12/08 05:46:37;;;;;;;16.27;8.37;;;;;;;;;;5040485;28;20227;-62
2023/12/08 05:49:04;;;;;;;16.07;9.10;;;;;;;;;;5041080;28;20208;-62
2023/12/08 05:51:33;;;;;;;16.73;8.63;;;;;;;;;;5035671;28;20215;-62
2023/12/08 05:54:00;;;;;;;15.83;8.37;;;;;;;;;;5040213;28;20215;-62
2023/12/08 05:56:27;;;;;;;16.03;9.17;;;;;;;;;;5037612;28;20203;-61
2023/12/08 05:58:54;;;;;;;17.67;9.80;;;;;;;;;;5034505;28;20277;-62
2023/12/08 06:01:21;;;;;;;14.23;9.00;;;;;;;;;;5034268;28;20196;-64
2023/12/08 06:03:48;;;;;;;15.43;8.83;;;;;;;;;;5038792;28;20204;-61
2023/12/08 06:06:16;;;;;;;18.20;9.50;;;;;;;;;;5045085;28;20238;-63
2023/12/08 06:08:44;;;;;;;17.83;9.33;;;;;;;;;;5034388;28;20212;-63
2023/12/08 06:11:11;;;;;;;16.80;9.00;;;;;;;;;;5041345;28;20211;-62
2023/12/08 06:13:38;;;;;;;19.53;10.07;;;;;;;;;;5034702;28;20212;-61
2023/12/08 06:16:06;;;;;;;16.80;9.93;;;;;;;;;;5042122;28;20226;-62
2023/12/08 06:18:33;;;;;;;16.73;9.97;;;;;;;;;;5033444;28;20269;-62
2023/12/08 06:21:00;;;;;;;17.37;9.27;;;;;;;;;;5031714;28;20213;-63
2023/12/08 06:23:27;;;;;;;23.47;10.37;;;;;;;;;;5035382;28;20211;-62
2023/12/08 06:25:55;;;;;;;20.30;9.97;;;;;;;;;;5041797;28;20207;-63
2023/12/08 06:28:22;;;;;;;21.30;10.60;;;;;;;;;;5023695;28;20209;-63
2023/12/08 06:30:49;;;;;;;16.77;9.43;;;;;;;;;;5028185;28;20220;-63
2023/12/08 06:33:16;;;;;;;18.43;10.43;;;;;;;;;;5035006;28;20215;-62
2023/12/08 06:35:43;;;;;;;20.73;10.43;;;;;;;;;;5047037;28;20215;-62
2023/12/08 06:38:11;;;;;;;23.07;12.17;;;;;;;;;;5046591;28;20212;-62
2023/12/08 06:40:38;;;;;;;21.17;11.10;;;;;;;;;;5023855;28;20617;-63
2023/12/08 06:43:06;;;;;;;21.50;10.70;;;;;;;;;;5034954;28;20202;-63
2023/12/08 06:45:34;;;;;;;19.43;10.37;;;;;;;;;;5030822;28;20211;-63
2023/12/08 06:48:01;;;;;;;24.63;10.73;;;;;;;;;;5042806;28;20558;-63
2023/12/08 06:50:28;;;;;;;25.03;11.70;;;;;;;;;;5034705;28;20204;-63
2023/12/08 06:52:55;;;;;;;19.23;10.47;;;;;;;;;;5032842;28;20207;-63
2023/12/08 06:55:22;;;;;;;20.87;12.23;;;;;;;;;;5046382;28;20660;-63
2023/12/08 06:57:49;;;;;;;23.43;11.53;;;;;;;;;;5043695;28;20206;-63
2023/12/08 07:00:18;;;;;;;18.77;10.63;;;;;;;;;;5044778;28;20264;-62
2023/12/08 07:02:45;;;;;;;25.80;11.33;;;;;;;;;;5040606;28;20211;-61
2023/12/08 07:05:12;;;;;;;19.33;11.03;;;;;;;;;;5044014;28;20204;-62
2023/12/08 07:07:39;;;;;;;18.83;10.90;;;;;;;;;;5046037;28;20323;-62
2023/12/08 07:10:07;;;;;;;19.83;10.43;;;;;;;;;;5043265;28;20639;-62
2023/12/08 07:12:34;;;;;;;19.13;9.73;;;;;;;;;;5043080;28;20211;-62
2023/12/08 07:15:01;;;;;;;21.53;10.57;;;;;;;;;;5040413;28;20210;-62
2023/12/08 07:17:30;;;;;;;19.93;10.73;;;;;;;;;;5032047;28;20239;-62
2023/12/08 07:19:57;;;;;;;19.47;10.30;;;;;;;;;;5042529;28;20204;-62
2023/12/08 07:22:24;;;;;;;18.17;10.43;;;;;;;;;;5042177;28;20212;-62
2023/12/08 07:24:52;;;;;;;19.93;10.70;;;;;;;;;;5046990;28;20214;-62
2023/12/08 07:27:19;;;;;;;18.60;9.47;;;;;;;;;;5046728;28;20246;-64
2023/12/08 07:29:46;;;;;;;18.67;9.07;;;;;;;;;;5038990;28;20306;-63
2023/12/08 07:32:13;;;;;;;18.00;9.33;;;;;;;;;;5030646;28;20234;-62
2023/12/08 07:34:41;;;;;;;19.30;9.30;;;;;;;;;;5047124;28;20292;-62
2023/12/08 07:37:08;;;;;;;19.50;10.10;;;;;;;;;;5042583;28;20203;-62
2023/12/08 07:39:36;;;;;;;23.83;10.13;;;;;;;;;;5047417;28;20214;-62
2023/12/08 07:42:03;;;;;;;24.30;11.73;;;;;;;;;;5026704;28;20567;-62
2023/12/08 07:44:30;;;;;;;18.77;10.63;;;;;;;;;;5029746;28;20649;-62
2023/12/08 07:46:58;;;;;;;19.97;10.97;;;;;;;;;;5036389;28;20224;-62
2023/12/08 07:49:25;;;;;;;20.53;10.80;;;;;;;;;;5022629;28;20627;-62
2023/12/08 07:51:53;;;;;;;19.93;10.23;;;;;;;;;;5024802;28;20269;-62
2023/12/08 07:54:20;;;;;;;20.73;10.50;;;;;;;;;;5024138;28;20219;-62
2023/12/08 07:56:47;;;;;;;21.43;10.93;;;;;;;;;;5035051;28;20200;-62
2023/12/08 07:59:14;;;;;;;23.60;11.07;;;;;;;;;;5026179;28;20212;-61
2023/12/08 08:01:42;;;;;;;21.23;11.47;;;;;;;;;;5026484;28;20216;-62
2023/12/08 08:04:09;;;;;;;21.50;10.97;;;;;;;;;;5040649;28;20223;-62
2023/12/08 08:06:36;;;;;;;20.90;11.50;;;;;;;;;;5037421;28;20238;-62
2023/12/08 08:09:04;;;;;;;25.40;11.90;;;;;;;;;;5046617;28;20677;-62
2023/12/08 08:11:31;;;;;;;23.40;12.00;;;;;;;;;;5045026;28;20576;-62
2023/12/08 08:13:59;;;;;;;24.60;12.00;;;;;;;;;;5046541;28;20211;-62
2023/12/08 08:16:26;;;;;;;22.63;11.80;;;;;;;;;;5044663;28;20246;-62
2023/12/08 08:18:53;;;;;;;25.77;12.40;;;;;;;;;;5047004;28;20237;-62
2023/12/08 08:21:20;;;;;;;18.67;10.93;;;;;;;;;;5046802;28;20254;-61
2023/12/08 08:23:47;;;;;;;23.00;10.73;;;;;;;;;;5027530;28;20209;-63
2023/12/08 08:26:16;;;;;;;25.37;11.87;;;;;;;;;;5031032;28;20196;-63
2023/12/08 08:28:43;;;;;;;20.80;10.97;;;;;;;;;;5032114;28;20216;-63
2023/12/08 08:31:10;;;;;;;20.37;10.63;;;;;;;;;;5026426;28;20266;-63
2023/12/08 08:33:37;;;;;;;21.33;11.40;;;;;;;;;;5040525;28;20216;-63
2023/12/08 08:36:05;;;;;;;27.13;12.50;;;;;;;;;;5028674;28;20210;-63
2023/12/08 08:38:32;;;;;;;21.17;11.37;;;;;;;;;;5046703;28;20207;-63
2023/12/08 08:41:00;;;;;;;25.27;12.60;;;;;;;;;;5045807;28;20208;-63
2023/12/08 08:43:28;;;;;;;26.70;11.90;;;;;;;;;;5046489;28;20211;-63
2023/12/08 08:45:55;;;;;;;22.50;12.10;;;;;;;;;;5040804;28;20208;-63
2023/12/08 08:48:22;;;;;;;24.47;12.70;;;;;;;;;;5026084;28;20232;-62
2023/12/08 08:50:49;;;;;;;22.87;11.47;;;;;;;;;;5026241;28;20223;-62
2023/12/08 08:53:17;;;;;;;20.53;11.17;;;;;;;;;;5025728;28;20220;-62
2023/12/08 08:55:44;;;;;;;23.70;11.57;;;;;;;;;;5030883;28;20299;-63
2023/12/08 08:58:11;;;;;;;20.93;10.70;;;;;;;;;;5046293;28;20207;-62
2023/12/08 09:00:39;;;;;;;22.20;11.13;;;;;;;;;;5045969;28;20215;-66
2023/12/08 09:03:07;;;;;;;25.17;12.70;;;;;;;;;;5042499;28;20650;-62
2023/12/08 09:05:40;;;;;;;23.60;11.70;;;;;;;;;;5030286;28;20287;-63
2023/12/08 09:08:07;;;;;;;24.50;12.00;;;;;;;;;;5042195;28;20224;-63
2023/12/08 09:10:34;;;;;;;27.33;12.37;;;;;;;;;;5027246;28;20239;-62
2023/12/08 09:13:01;;;;;;;23.80;11.53;;;;;;;;;;5026530;28;20208;-63
2023/12/08 09:15:28;;;;;;;22.30;11.83;;;;;;;;;;5028126;28;20225;-62
2023/12/08 09:17:57;;;;;;;22.90;10.80;;;;;;;;;;5032436;28;20239;-63
2023/12/08 09:20:24;;;;;;;25.97;11.57;;;;;;;;;;5036393;28;20278;-66
2023/12/08 09:22:51;;;;;;;22.40;11.73;;;;;;;;;;5028265;28;20216;-63
2023/12/08 09:25:19;;;;;;;25.93;12.17;;;;;;;;;;5043692;28;20273;-63
2023/12/08 09:27:46;;;;;;;21.70;11.83;;;;;;;;;;5042556;28;20227;-62
2023/12/08 09:30:13;;;;;;;19.20;11.43;;;;;;;;;;5037270;28;20215;-63
2023/12/08 09:32:40;;;;;;;27.80;11.30;;;;;;;;;;5035622;28;20204;-63
2023/12/08 09:35:09;;;;;;;26.60;12.67;;;;;;;;;;5043484;28;20665;-63
2023/12/08 09:37:36;;;;;;;29.20;14.50;;;;;;;;;;5036502;28;20819;-63
2023/12/08 09:40:05;;;;;;;21.73;11.57;;;;;;;;;;5036194;28;20211;-65
2023/12/08 09:42:37;;;;;;;21.00;11.53;;;;;;;;;;5032263;28;20204;-65
2023/12/08 09:45:05;;;;;;;27.40;12.63;;;;;;;;;;5045045;28;20647;-64
2023/12/08 09:47:35;;;;;;;25.87;12.13;;;;;;;;;;5036455;28;20270;-64
2023/12/08 09:50:03;;;;;;;23.70;10.93;;;;;;;;;;5029898;28;20200;-64
2023/12/08 09:52:33;;;;;;;23.63;11.23;;;;;;;;;;5033410;28;20209;-67
2023/12/08 09:55:01;;;;;;;22.73;11.63;;;;;;;;;;5036101;28;20211;-64
2023/12/08 09:57:28;;;;;;;28.67;11.90;;;;;;;;;;5030457;28;20215;-64
2023/12/08 09:59:57;;;;;;;24.53;12.60;;;;;;;;;;5042821;28;20210;-64
2023/12/08 10:02:24;;;;;;;23.67;12.60;;;;;;;;;;5045070;28;20210;-64
2023/12/08 10:04:51;;;;;;;20.47;10.83;;;;;;;;;;5045037;28;20223;-63
2023/12/08 10:07:19;;;;;;;23.43;12.23;;;;;;;;;;5045371;28;20696;-63
2023/12/08 10:09:47;;;;;;;29.10;12.63;;;;;;;;;;5044679;28;20265;-63
2023/12/08 10:12:14;;;;;;;28.60;12.27;;;;;;;;;;5038749;28;20649;-64
2023/12/08 10:14:55;;;;;;;24.97;13.23;;;;;;;;;;5042696;28;20211;-63
2023/12/08 10:17:22;;;;;;;23.70;12.20;;;;;;;;;;5038358;28;20246;-63
2023/12/08 10:19:51;;;;;;;23.67;11.77;;;;;;;;;;5020233;28;20219;-64
2023/12/08 10:22:18;;;;;;;28.10;11.97;;;;;;;;;;5027437;28;20671;-63
2023/12/08 10:24:45;;;;;;;21.30;12.03;;;;;;;;;;5031772;28;20560;-64
2023/12/08 10:27:14;;;;;;;17.23;8.53;;;;;;;;;;5021616;28;20267;-62
2023/12/08 10:29:41;;;;;;;20.87;11.80;;;;;;;;;;5037759;28;20219;-64
2023/12/08 10:32:08;;;;;;;26.87;12.07;;;;;;;;;;5044323;28;20204;-64
2023/12/08 10:34:39;;;;;;;20.63;11.80;;;;;;;;;;5042404;28;20218;-64
2023/12/08 10:37:06;;;;;;;25.27;12.43;;;;;;;;;;5049630;28;20211;-64
2023/12/08 10:39:34;;;;;;;24.53;12.37;;;;;;;;;;5048288;28;20225;-64
2023/12/08 10:42:01;;;;;;;23.10;11.10;;;;;;;;;;5040626;28;20671;-64
2023/12/08 10:44:30;;;;;;;22.90;11.50;;;;;;;;;;5028934;28;20209;-63
2023/12/08 10:46:57;;;;;;;19.77;11.03;;;;;;;;;;5028906;28;20212;-63
2023/12/08 10:49:24;;;;;;;19.70;10.20;;;;;;;;;;5027167;28;20226;-63
2023/12/08 10:51:52;;;;;;;25.47;11.77;;;;;;;;;;5027458;28;20211;-63
2023/12/08 10:54:19;;;;;;;22.23;11.63;;;;;;;;;;5024046;28;20839;-63
2023/12/08 10:56:46;;;;;;;25.97;11.57;;;;;;;;;;5023153;28;20219;-62
2023/12/08 10:59:18;;;;;;;23.83;12.50;;;;;;;;;;5023100;28;20209;-62
2023/12/08 11:01:47;;;;;;;23.90;12.03;;;;;;;;;;5042470;28;20239;-64
2023/12/08 11:04:18;;;;;;;21.87;11.57;;;;;;;;;;5043137;28;20227;-61
2023/12/08 11:06:48;;;;;;;22.77;11.60;;;;;;;;;;5046535;28;20231;-64
2023/12/08 11:09:16;;;;;;;24.43;12.47;;;;;;;;;;5046399;28;20240;-63
2023/12/08 11:11:44;;;;;;;17.87;10.57;;;;;;;;;;5036773;28;20255;-62
2023/12/08 11:14:15;;;;;;;22.23;11.73;;;;;;;;;;5039539;28;20204;-62
2023/12/08 11:16:47;;;;;;;20.83;11.33;;;;;;;;;;5035120;28;20282;-62
2023/12/08 11:19:16;;;;;;;23.73;12.40;;;;;;;;;;5042261;28;20208;-60
2023/12/08 11:21:44;;;;;;;22.40;11.87;;;;;;;;;;5041221;28;20299;-62
2023/12/08 11:24:11;;;;;;;27.57;11.73;;;;;;;;;;5042725;28;20681;-62
2023/12/08 11:26:41;;;;;;;25.03;11.93;;;;;;;;;;5041066;28;20226;-63
2023/12/08 11:29:14;;;;;;;25.37;12.37;;;;;;;;;;5044676;28;20248;-63
2023/12/08 11:31:45;;;;;;;20.97;11.47;;;;;;;;;;5040678;28;20254;-63
2023/12/08 11:34:14;;;;;;;20.87;11.70;;;;;;;;;;5039854;28;20284;-63
2023/12/08 11:36:46;;;;;;;25.20;12.67;;;;;;;;;;5042334;28;20219;-63
2023/12/08 11:39:32;;;;;;;26.53;12.90;;;;;;;;;;5040206;28;20303;-63
2023/12/08 11:41:59;;;;;;;23.33;12.53;;;;;;;;;;5035414;28;20207;-62
2023/12/08 11:44:26;;;;;;;33.87;13.80;;;;;;;;;;5039022;28;20207;-66
2023/12/08 11:46:53;;;;;;;28.30;13.17;;;;;;;;;;5045451;28;20208;-62
2023/12/08 11:49:20;;;;;;;25.03;13.73;;;;;;;;;;5035059;28;20575;-63
2023/12/08 11:52:05;;;;;;;23.97;13.00;;;;;;;;;;5026831;28;20205;-63
2023/12/08 11:54:36;;;;;;;26.63;13.57;;;;;;;;;;5027164;28;20750;-63
2023/12/08 11:57:04;;;;;;;32.10;13.67;;;;;;;;;;5033377;28;20275;-63
2023/12/08 11:59:31;;;;;;;30.17;13.83;;;;;;;;;;5045943;28;20889;-63
2023/12/08 12:01:58;;;;;;;32.30;14.63;;;;;;;;;;5037950;28;20259;-63
2023/12/08 12:04:25;;;;;;;34.63;13.87;;;;;;;;;;5046323;28;20221;-63
2023/12/08 12:06:53;;;;;;;25.57;12.17;;;;;;;;;;5045006;28;20585;-63
2023/12/08 12:09:21;;;;;;;26.10;12.63;;;;;;;;;;5042450;28;20314;-62
2023/12/08 12:11:50;;;;;;;26.90;13.67;;;;;;;;;;5044252;28;20212;-64
2023/12/08 12:14:19;;;;;;;39.27;15.40;;;;;;;;;;5035649;28;20303;-63
2023/12/08 12:16:47;;;;;;;34.63;14.33;;;;;;;;;;5040277;28;20243;-65
2023/12/08 12:19:14;;;;;;;29.13;13.40;;;;;;;;;;5023211;28;20663;-62
2023/12/08 12:21:43;;;;;;;29.17;14.33;;;;;;;;;;5024793;28;20218;-63
2023/12/08 12:24:10;;;;;;;32.67;14.53;;;;;;;;;;5021932;28;20210;-63
2023/12/08 12:26:39;;;;;;;31.10;13.43;;;;;;;;;;5024216;28;20214;-63
2023/12/08 12:29:06;;;;;;;37.23;15.80;;;;;;;;;;5026395;28;20848;-63
2023/12/08 12:31:33;;;;;;;26.93;14.50;;;;;;;;;;5026342;28;20220;-63
2023/12/08 12:34:00;;;;;;;32.63;15.17;;;;;;;;;;5042938;28;20432;-63
2023/12/08 12:36:28;;;;;;;28.77;14.27;;;;;;;;;;5046417;28;20221;-62
2023/12/08 12:38:55;;;;;;;27.13;14.27;;;;;;;;;;5044575;28;20849;-63
2023/12/08 12:41:23;;;;;;;32.80;15.97;;;;;;;;;;5026009;28;20233;-63
2023/12/08 12:43:56;;;;;;;30.37;14.17;;;;;;;;;;5025678;28;20204;-63
2023/12/08 12:46:25;;;;;;;27.93;14.23;;;;;;;;;;5025714;28;20312;-63
2023/12/08 12:48:53;;;;;;;32.77;15.10;;;;;;;;;;5025490;28;20289;-63
2023/12/08 12:51:32;;;;;;;31.70;14.63;;;;;;;;;;5040807;28;20242;-63
2023/12/08 12:53:59;;;;;;;28.43;15.37;;;;;;;;;;5043319;28;20239;-63
2023/12/08 12:56:26;;;;;;;35.87;16.00;;;;;;;;;;5032862;28;20212;-63
2023/12/08 12:59:04;;;;;;;31.20;14.87;;;;;;;;;;5025563;28;20220;-63
2023/12/08 13:01:32;;;;;;;33.37;15.00;;;;;;;;;;5025504;28;20219;-64
2023/12/08 13:03:59;;;;;;;30.13;14.37;;;;;;;;;;5041751;28;20211;-63
2023/12/08 13:06:29;;;;;;;33.13;15.30;;;;;;;;;;5027439;28;20905;-63
2023/12/08 13:08:57;;;;;;;37.70;15.87;;;;;;;;;;5024790;28;20254;-63
2023/12/08 13:11:25;;;;;;;30.27;15.80;;;;;;;;;;5035323;28;20325;-63
2023/12/08 13:13:52;;;;;;;37.63;15.43;;;;;;;;;;5030690;28;20228;-63
2023/12/08 13:16:20;;;;;;;36.17;15.97;;;;;;;;;;5025835;28;20232;-63
2023/12/08 13:18:48;;;;;;;33.77;14.33;;;;;;;;;;5025559;28;20299;-63
2023/12/08 13:21:16;;;;;;;34.07;15.10;;;;;;;;;;5025358;28;20681;-63
2023/12/08 13:23:43;;;;;;;30.90;14.20;;;;;;;;;;5037818;28;20299;-64
2023/12/08 13:26:10;;;;;;;35.37;14.73;;;;;;;;;;5030639;28;20230;-63
2023/12/08 13:28:37;;;;;;;33.37;14.77;;;;;;;;;;5024798;28;21010;-63
2023/12/08 13:31:05;;;;;;;35.13;15.80;;;;;;;;;;5025227;28;20673;-63
2023/12/08 13:33:33;;;;;;;39.17;14.97;;;;;;;;;;5036345;28;20230;-63
2023/12/08 13:36:00;;;;;;;32.00;12.90;;;;;;;;;;5042531;28;20227;-63
2023/12/08 13:38:28;;;;;;;31.40;14.80;;;;;;;;;;5044914;28;20210;-63
2023/12/08 13:40:55;;;;;;;42.83;16.20;;;;;;;;;;5044640;28;20208;-64
2023/12/08 13:43:22;;;;;;;32.97;15.90;;;;;;;;;;5042552;28;20210;-63
2023/12/08 13:45:49;;;;;;;34.83;14.27;;;;;;;;;;5033503;28;20215;-63
2023/12/08 13:48:20;;;;;;;39.13;15.20;;;;;;;;;;5024804;28;20237;-63
2023/12/08 13:50:48;;;;;;;35.63;13.83;;;;;;;;;;5024941;28;20235;-63
2023/12/08 13:53:15;;;;;;;31.20;14.27;;;;;;;;;;5024944;28;20211;-63
2023/12/08 13:55:42;;;;;;;36.97;14.97;;;;;;;;;;5030750;28;20217;-62
2023/12/08 13:58:09;;;;;;;38.73;16.00;;;;;;;;;;5035733;28;20689;-62
2023/12/08 14:00:36;;;;;;;36.60;15.60;;;;;;;;;;5028243;28;20210;-63
2023/12/08 14:03:04;;;;;;;31.37;15.30;;;;;;;;;;5036277;28;20212;-63
2023/12/08 14:05:31;;;;;;;40.27;17.40;;;;;;;;;;5033581;28;21454;-62
2023/12/08 14:07:59;;;;;;;40.67;16.23;;;;;;;;;;5035257;28;20217;-63
2023/12/08 14:10:26;;;;;;;38.23;16.00;;;;;;;;;;5038567;28;20244;-63
2023/12/08 14:12:54;;;;;;;36.93;15.83;;;;;;;;;;5037207;28;20208;-63
2023/12/08 14:15:21;;;;;;;33.33;14.87;;;;;;;;;;5045149;28;20236;-64
2023/12/08 14:17:48;;;;;;;34.60;16.13;;;;;;;;;;5035283;28;20247;-63
2023/12/08 14:20:15;;;;;;;37.20;15.43;;;;;;;;;;5036690;28;20634;-63
2023/12/08 14:22:42;;;;;;;41.27;15.53;;;;;;;;;;5030057;28;20216;-63
2023/12/08 14:25:11;;;;;;;40.90;16.00;;;;;;;;;;5041051;28;20269;-63